Pagrindinis puslapis
METAR-TAF:

METAR-TAF

Oro uostai :

Sianas, Kinija

platuma: 34-26N, ilguma: 108-45E, Aukštis: 479 m

Dabartinis oras

Ataskaita buvo paskelbta 29 minutes, ne 09:00 UTC
Vėjas 6 kt iš Pietryčių, svyruoja nuo Rytų ir Pietų
Temperatūra 9°C
Drėgmė 29%
Slėgis 1014 hPa
Matomumas: 8000 m

METAR: ZLXY 190900Z 14003MPS 090V180 8000 NSC 09/M08 Q1014 NOSIG

Laikas: 17:29 (09:29 UTC)

Prognozė

Ataskaita buvo paskelbta 6 valandos ir 23 minutes, ne 03:06 UTC
Prognozė galioja nuo 19 metu 06 UTC su 20 metu 06 UTC
Vėjas 6 kt iš Rytų/Šiaurės Rytų
Matomumas: 6000 m

TAF: ZLXY 190306Z 1906/2006 06003MPS 6000 NSC TX11/1907Z TNM04/1922Z

Orai ataskaitas ir orų prognozės (METAR, TAF).

turimą stotys yra geltonos ir raudonos taškus žemėlapyje.

Perkelti pele per norėdami pamatyti stoties vardą.

Tada spustelėkite, norėdami matyti oro stebėjimo ir prognozės.

Norėdami pakeisti žemėlapį: spustelėkite ant žalios mygtukų su juodo kryžiaus žemyn,; žalią mygtuką su brūkšneliu, jei norite nutolinti; arba žalių rodyklių gretimoms žemėlapius.


METAR-TAF: